createdAt,value
2018-11-03T00:02:16.747Z,88.84
2018-11-03T00:04:45.665Z,88.58
2018-11-03T00:07:14.559Z,88.61
2018-11-03T00:09:43.441Z,89.32
2018-11-03T00:12:12.506Z,87.36
2018-11-03T00:14:46.444Z,87.14
2018-11-03T00:17:15.344Z,87.19
2018-11-03T00:19:44.227Z,86.47
2018-11-03T00:22:13.162Z,85.86
2018-11-03T00:24:42.104Z,86.36
2018-11-03T00:27:10.980Z,86.89
2018-11-03T00:29:39.899Z,87.46
2018-11-03T00:32:08.811Z,87.91
2018-11-03T00:34:37.754Z,87.98
2018-11-03T00:37:06.664Z,88.59
2018-11-03T00:39:35.589Z,86.76
2018-11-03T00:42:04.483Z,86.29
2018-11-03T00:44:33.410Z,86.45
2018-11-03T00:47:02.353Z,85.45
2018-11-03T00:49:31.289Z,85.19
2018-11-03T00:52:00.248Z,85.26
2018-11-03T00:54:29.167Z,84.69
2018-11-03T00:56:58.120Z,84.50
2018-11-03T00:59:27.012Z,84.41
2018-11-03T01:01:55.949Z,85.33
2018-11-03T01:04:24.922Z,84.97
2018-11-03T01:06:53.920Z,84.02
2018-11-03T01:09:22.881Z,83.28
2018-11-03T01:11:51.835Z,84.13
2018-11-03T01:14:20.925Z,83.77
2018-11-03T01:16:49.877Z,83.19
2018-11-03T01:19:18.809Z,83.12
2018-11-03T01:21:47.800Z,82.85
2018-11-03T01:24:16.761Z,82.68
2018-11-03T01:26:45.897Z,82.40
2018-11-03T01:29:14.949Z,82.63
2018-11-03T01:31:47.875Z,83.00
2018-11-03T01:34:16.842Z,82.42
2018-11-03T01:36:45.756Z,83.24
2018-11-03T01:39:14.668Z,83.10
2018-11-03T01:41:44.288Z,83.51
2018-11-03T01:44:13.171Z,84.36
2018-11-03T01:46:42.120Z,83.18
2018-11-03T01:49:11.046Z,83.26
2018-11-03T01:51:39.926Z,82.76
2018-11-03T01:54:08.871Z,82.89
2018-11-03T01:56:37.764Z,82.87
2018-11-03T01:59:07.030Z,82.44
2018-11-03T02:01:35.902Z,83.06
2018-11-03T02:04:05.049Z,82.11
2018-11-03T02:06:33.955Z,82.25
2018-11-03T02:09:02.857Z,82.56
2018-11-03T02:11:31.753Z,82.84
2018-11-03T02:14:00.625Z,82.09
2018-11-03T02:16:29.499Z,82.06
2018-11-03T02:18:58.421Z,82.00
2018-11-03T02:21:27.431Z,81.83
2018-11-03T02:23:56.411Z,82.72
2018-11-03T02:26:25.353Z,82.03
2018-11-03T02:28:54.224Z,82.61
2018-11-03T02:31:23.169Z,82.20
2018-11-03T02:33:52.206Z,82.22
2018-11-03T02:36:21.171Z,83.84
2018-11-03T02:38:50.140Z,83.31
2018-11-03T02:41:19.091Z,84.01
2018-11-03T02:43:48.004Z,83.53
2018-11-03T02:46:16.925Z,83.05
2018-11-03T02:48:45.959Z,83.47
2018-11-03T02:51:14.930Z,82.68
2018-11-03T02:53:43.904Z,83.59
2018-11-03T02:56:12.968Z,83.47
2018-11-03T02:58:42.010Z,82.79
2018-11-03T03:01:10.993Z,81.92
2018-11-03T03:03:39.978Z,82.47
2018-11-03T03:06:08.981Z,83.46
2018-11-03T03:08:38.031Z,81.99
2018-11-03T03:11:06.945Z,82.69
2018-11-03T03:13:35.814Z,83.84
2018-11-03T03:16:04.793Z,82.58
2018-11-03T03:18:33.674Z,84.15
2018-11-03T03:21:02.600Z,83.02
2018-11-03T03:23:31.543Z,82.46
2018-11-03T03:26:00.512Z,82.53
2018-11-03T03:28:29.438Z,83.11
2018-11-03T03:30:58.382Z,83.06
2018-11-03T03:33:27.407Z,83.06
2018-11-03T03:35:56.329Z,83.75
2018-11-03T03:38:25.475Z,83.69
2018-11-03T03:40:54.515Z,83.40
2018-11-03T03:43:23.527Z,83.06
2018-11-03T03:45:52.442Z,84.15
2018-11-03T03:48:21.349Z,83.15
2018-11-03T03:50:50.238Z,84.04
2018-11-03T03:53:19.160Z,83.83
2018-11-03T03:55:48.039Z,82.95
2018-11-03T03:58:16.950Z,83.86
2018-11-03T04:00:45.879Z,83.72
2018-11-03T04:03:14.826Z,84.34
2018-11-03T04:05:43.696Z,83.80
2018-11-03T04:08:12.674Z,84.24
2018-11-03T04:10:41.545Z,83.34
2018-11-03T04:13:10.447Z,83.95
2018-11-03T04:15:39.398Z,83.99
2018-11-03T04:18:08.328Z,82.89
2018-11-03T04:20:37.900Z,81.88
2018-11-03T04:23:06.976Z,84.29
2018-11-03T04:25:35.915Z,83.84
2018-11-03T04:28:04.827Z,83.24
2018-11-03T04:30:33.765Z,83.48
2018-11-03T04:33:02.651Z,83.15
2018-11-03T04:35:31.545Z,82.81
2018-11-03T04:38:00.468Z,83.58
2018-11-03T04:40:29.393Z,84.53
2018-11-03T04:42:58.319Z,82.80
2018-11-03T04:45:27.310Z,83.48
2018-11-03T04:47:56.180Z,84.04
2018-11-03T04:50:25.069Z,84.81
2018-11-03T04:52:53.986Z,84.01
2018-11-03T04:55:22.903Z,83.93
2018-11-03T04:57:51.761Z,83.71
2018-11-03T05:00:20.661Z,83.79
2018-11-03T05:02:49.541Z,84.26
2018-11-03T05:05:18.431Z,82.62
2018-11-03T05:07:47.325Z,83.03
2018-11-03T05:10:16.282Z,83.15
2018-11-03T05:12:45.129Z,82.92
2018-11-03T05:15:14.006Z,82.72
2018-11-03T05:17:42.894Z,81.46
2018-11-03T05:20:11.836Z,81.56
2018-11-03T05:22:40.816Z,81.90
2018-11-03T05:25:09.726Z,81.50
2018-11-03T05:27:38.684Z,83.01
2018-11-03T05:30:08.117Z,82.60
2018-11-03T05:32:37.432Z,81.79
2018-11-03T05:35:06.642Z,81.86
2018-11-03T05:37:35.563Z,82.09
2018-11-03T05:40:04.499Z,83.03
2018-11-03T05:42:33.625Z,82.49
2018-11-03T05:45:02.568Z,82.52
2018-11-03T05:47:31.603Z,82.78
2018-11-03T05:50:00.523Z,82.63
2018-11-03T05:52:29.460Z,82.62
2018-11-03T05:54:58.362Z,81.98
2018-11-03T05:57:27.236Z,82.08
2018-11-03T05:59:56.135Z,81.70
2018-11-03T06:02:25.108Z,83.01
2018-11-03T06:04:54.066Z,82.11
2018-11-03T06:07:23.123Z,81.87
2018-11-03T06:09:51.987Z,81.47
2018-11-03T06:12:20.901Z,82.65
2018-11-03T06:14:49.774Z,84.19
2018-11-03T06:17:19.679Z,82.79
2018-11-03T06:19:48.634Z,82.94
2018-11-03T06:22:17.735Z,84.61
2018-11-03T06:24:46.664Z,83.22
2018-11-03T06:27:15.569Z,84.00
2018-11-03T06:29:44.533Z,82.64
2018-11-03T06:32:13.429Z,82.56
2018-11-03T06:34:42.487Z,82.13
2018-11-03T06:37:11.410Z,82.48
2018-11-03T06:39:40.428Z,82.78
2018-11-03T06:42:09.339Z,82.56
2018-11-03T06:44:39.336Z,82.09
2018-11-03T06:47:08.713Z,82.64
2018-11-03T06:49:37.570Z,82.46
2018-11-03T06:52:06.503Z,82.63
2018-11-03T06:54:35.387Z,83.25
2018-11-03T06:57:04.281Z,82.54
2018-11-03T06:59:33.209Z,82.07
2018-11-03T07:02:02.124Z,82.90
2018-11-03T07:04:31.005Z,82.31
2018-11-03T07:06:59.914Z,83.00
2018-11-03T07:09:29.095Z,82.47
2018-11-03T07:11:58.016Z,82.50
2018-11-03T07:14:26.908Z,83.05
2018-11-03T07:16:55.782Z,83.56
2018-11-03T07:19:24.719Z,83.54
2018-11-03T07:21:53.611Z,83.69
2018-11-03T07:24:22.527Z,83.95
2018-11-03T07:26:51.439Z,84.39
2018-11-03T07:29:20.315Z,84.33
2018-11-03T07:31:49.225Z,85.26
2018-11-03T07:34:18.131Z,85.64
2018-11-03T07:36:47.013Z,85.22
2018-11-03T07:39:15.901Z,85.36
2018-11-03T07:41:44.787Z,84.43
2018-11-03T07:44:13.705Z,84.35
2018-11-03T07:46:42.690Z,86.26
2018-11-03T07:49:16.096Z,86.35
2018-11-03T07:51:45.796Z,86.82
2018-11-03T07:54:14.737Z,86.04
2018-11-03T07:56:44.281Z,85.83
2018-11-03T07:59:13.182Z,85.47
2018-11-03T08:01:42.066Z,86.01
2018-11-03T08:04:11.292Z,85.26
2018-11-03T08:06:40.179Z,85.93
2018-11-03T08:09:09.984Z,87.09
2018-11-03T08:11:39.124Z,87.33
2018-11-03T08:14:08.399Z,87.50
2018-11-03T08:16:37.267Z,89.00
2018-11-03T08:19:06.278Z,86.17
2018-11-03T08:21:35.162Z,87.10
2018-11-03T08:24:04.151Z,87.21
2018-11-03T08:26:32.940Z,89.75
2018-11-03T08:29:01.831Z,88.32
2018-11-03T08:31:30.914Z,87.72
2018-11-03T08:33:59.653Z,89.31
2018-11-03T08:36:28.601Z,91.38
2018-11-03T08:38:57.483Z,92.14
2018-11-03T08:41:26.363Z,91.24
2018-11-03T08:43:55.269Z,90.84
2018-11-03T08:46:24.142Z,93.07
2018-11-03T08:48:53.263Z,92.85
2018-11-03T08:51:21.975Z,91.20
2018-11-03T08:53:50.902Z,93.14
2018-11-03T08:56:19.800Z,94.01
2018-11-03T08:58:48.722Z,92.91
2018-11-03T09:01:19.125Z,94.24
2018-11-03T09:03:48.088Z,94.57
2018-11-03T09:06:16.971Z,93.77
2018-11-03T09:08:45.922Z,95.48
2018-11-03T09:11:14.836Z,95.39
2018-11-03T09:13:43.722Z,93.91
2018-11-03T09:16:12.646Z,94.78
2018-11-03T09:18:41.554Z,94.88
2018-11-03T09:21:10.425Z,94.45
2018-11-03T09:23:39.423Z,93.33
2018-11-03T09:26:08.538Z,93.72
2018-11-03T09:28:37.542Z,93.78
2018-11-03T09:31:06.454Z,94.11
2018-11-03T09:33:35.363Z,92.99
2018-11-03T09:36:04.263Z,93.03
2018-11-03T09:38:33.161Z,93.27
2018-11-03T09:41:02.074Z,92.46
2018-11-03T09:43:31.001Z,92.80
2018-11-03T09:45:59.842Z,94.64
2018-11-03T09:48:28.728Z,94.21
2018-11-03T09:50:57.696Z,95.01
2018-11-03T09:53:26.523Z,93.65
2018-11-03T09:55:58.446Z,93.31
2018-11-03T09:58:27.347Z,93.89
2018-11-03T10:00:57.096Z,95.12
2018-11-03T10:03:25.976Z,93.35
2018-11-03T10:05:54.892Z,93.46
2018-11-03T10:08:23.816Z,93.09
2018-11-03T10:10:52.700Z,93.09
2018-11-03T10:13:21.606Z,93.29
2018-11-03T10:15:50.565Z,91.51
2018-11-03T10:18:19.471Z,91.49
2018-11-03T10:20:48.343Z,92.37
2018-11-03T10:23:17.246Z,93.21
2018-11-03T10:25:46.330Z,93.23
2018-11-03T10:28:21.209Z,93.41
2018-11-03T10:30:55.773Z,92.70
2018-11-03T10:33:24.688Z,92.39
2018-11-03T10:35:53.588Z,91.90
2018-11-03T10:38:22.516Z,91.53
2018-11-03T10:40:51.419Z,91.26
2018-11-03T10:43:20.355Z,89.75
2018-11-03T10:45:49.248Z,88.50
2018-11-03T10:48:18.111Z,88.54
2018-11-03T10:50:47.055Z,89.76
2018-11-03T10:53:15.990Z,87.72
2018-11-03T10:55:44.920Z,87.69
2018-11-03T10:58:14.838Z,87.33
2018-11-03T11:00:49.160Z,87.86
2018-11-03T11:03:23.454Z,88.07
2018-11-03T11:07:00.147Z,87.76
2018-11-03T11:09:31.616Z,87.85
2018-11-03T11:12:05.876Z,88.31
2018-11-03T11:14:34.827Z,88.51
2018-11-03T11:17:03.797Z,87.78
2018-11-03T11:19:32.699Z,87.90
2018-11-03T11:22:01.603Z,87.23
2018-11-03T11:24:30.640Z,86.20
2018-11-03T11:26:59.426Z,87.18
2018-11-03T11:29:28.319Z,86.14
2018-11-03T11:31:57.330Z,86.14
2018-11-03T11:34:26.250Z,85.59
2018-11-03T11:36:55.139Z,85.82
2018-11-03T11:39:24.020Z,86.21
2018-11-03T11:41:52.934Z,86.09
2018-11-03T11:44:21.927Z,84.77
2018-11-03T11:46:50.797Z,85.62
2018-11-03T11:49:19.715Z,85.73
2018-11-03T11:51:48.634Z,84.34
2018-11-03T11:54:17.580Z,83.98
2018-11-03T11:56:46.472Z,85.00
2018-11-03T11:59:15.358Z,83.43
2018-11-03T12:01:44.303Z,82.66
2018-11-03T12:04:13.182Z,81.11
2018-11-03T12:06:42.156Z,82.37
2018-11-03T12:09:11.175Z,80.90
2018-11-03T12:11:40.070Z,81.72
2018-11-03T12:14:09.010Z,81.13
2018-11-03T12:16:37.936Z,81.51
2018-11-03T12:19:06.853Z,80.29
2018-11-03T12:21:35.748Z,80.82
2018-11-03T12:24:05.083Z,80.78
2018-11-03T12:26:33.981Z,79.97
2018-11-03T12:29:02.848Z,80.16
2018-11-03T12:31:31.728Z,80.74
2018-11-03T12:34:00.647Z,79.84
2018-11-03T12:36:29.595Z,79.82
2018-11-03T12:38:58.517Z,83.43
2018-11-03T12:41:27.613Z,81.53
2018-11-03T12:43:56.473Z,81.63
2018-11-03T12:46:25.380Z,81.30
2018-11-03T12:48:54.301Z,80.44
2018-11-03T12:51:23.206Z,79.95
2018-11-03T12:53:52.121Z,79.17
2018-11-03T12:56:21.067Z,79.13
2018-11-03T12:58:50.004Z,79.53
2018-11-03T13:01:18.893Z,79.53
2018-11-03T13:03:47.826Z,81.01
2018-11-03T13:06:16.738Z,80.56
2018-11-03T13:08:45.618Z,80.71
2018-11-03T13:11:14.546Z,78.68
2018-11-03T13:13:43.409Z,79.37
2018-11-03T13:16:12.334Z,78.96
2018-11-03T13:18:41.245Z,79.27
2018-11-03T13:21:10.202Z,79.02
2018-11-03T13:23:39.231Z,77.92
2018-11-03T13:26:08.185Z,82.16
2018-11-03T13:28:37.088Z,81.58
2018-11-03T13:31:06.009Z,80.60
2018-11-03T13:33:34.897Z,80.59
2018-11-03T13:36:03.787Z,80.06
2018-11-03T13:38:32.697Z,81.93
2018-11-03T13:41:01.997Z,80.20
2018-11-03T13:43:30.896Z,82.57
2018-11-03T13:45:59.833Z,82.88
2018-11-03T13:48:28.831Z,83.38
2018-11-03T13:50:57.787Z,82.94
2018-11-03T13:53:26.757Z,81.23
2018-11-03T13:55:55.646Z,82.32
2018-11-03T13:58:24.574Z,81.07
2018-11-03T14:00:53.498Z,80.83
2018-11-03T14:03:22.396Z,79.51
2018-11-03T14:05:51.299Z,81.77
2018-11-03T14:08:20.311Z,81.19
2018-11-03T14:10:49.321Z,81.62
2018-11-03T14:13:18.222Z,80.55
2018-11-03T14:15:47.109Z,81.83
2018-11-03T14:18:15.993Z,83.34
2018-11-03T14:20:44.976Z,82.66
2018-11-03T14:23:13.855Z,81.91
2018-11-03T14:25:42.738Z,82.09
2018-11-03T14:28:11.665Z,81.97
2018-11-03T14:30:40.568Z,83.62
2018-11-03T14:33:09.456Z,81.85
2018-11-03T14:35:38.371Z,82.12
2018-11-03T14:38:07.245Z,82.82
2018-11-03T14:40:36.217Z,83.81
2018-11-03T14:43:05.115Z,83.39
2018-11-03T14:45:34.054Z,82.93
2018-11-03T14:48:02.958Z,82.84
2018-11-03T14:50:33.750Z,83.37
2018-11-03T14:53:02.649Z,82.95
2018-11-03T14:55:31.545Z,82.85
2018-11-03T14:58:00.459Z,83.17
2018-11-03T15:00:33.552Z,83.05
2018-11-03T15:03:02.697Z,83.71
2018-11-03T15:05:31.627Z,83.34
2018-11-03T15:08:00.534Z,82.59
2018-11-03T15:10:29.416Z,82.93
2018-11-03T15:12:58.322Z,83.18
2018-11-03T15:15:27.241Z,83.25
2018-11-03T15:17:56.096Z,83.26
2018-11-03T15:20:25.057Z,83.55
2018-11-03T15:22:53.934Z,81.99
2018-11-03T15:25:22.810Z,82.14
2018-11-03T15:27:51.774Z,81.87
2018-11-03T15:30:20.674Z,82.62
2018-11-03T15:32:49.551Z,82.60
2018-11-03T15:35:18.485Z,81.98
2018-11-03T15:37:47.383Z,82.32
2018-11-03T15:40:16.681Z,81.24
2018-11-03T15:42:45.692Z,81.41
2018-11-03T15:45:15.800Z,80.69
2018-11-03T15:47:45.197Z,81.02
2018-11-03T15:50:14.876Z,80.56
2018-11-03T15:52:44.379Z,79.85
2018-11-03T15:55:13.376Z,81.43
2018-11-03T15:57:42.399Z,81.32
2018-11-03T16:00:15.662Z,82.26
2018-11-03T16:02:44.726Z,81.19
2018-11-03T16:05:16.571Z,81.17
2018-11-03T16:07:46.182Z,81.63
2018-11-03T16:10:15.109Z,81.77
2018-11-03T16:12:44.101Z,81.49
2018-11-03T16:15:13.533Z,81.87
2018-11-03T16:17:42.932Z,81.67
2018-11-03T16:20:12.843Z,81.21
2018-11-03T16:22:42.362Z,81.33
2018-11-03T16:25:11.156Z,81.70
2018-11-03T16:27:40.575Z,80.81
2018-11-03T16:30:11.570Z,81.22
2018-11-03T16:32:40.663Z,81.08
2018-11-03T16:35:09.330Z,81.10
2018-11-03T16:37:39.638Z,81.26
2018-11-03T16:40:10.070Z,81.16
2018-11-03T16:42:39.394Z,81.98
2018-11-03T16:45:09.482Z,80.93
2018-11-03T16:47:38.474Z,80.88
2018-11-03T16:50:08.889Z,81.15
2018-11-03T16:52:38.080Z,81.09
2018-11-03T16:55:07.138Z,81.13
2018-11-03T16:57:36.686Z,81.28
2018-11-03T17:00:06.825Z,80.75
2018-11-03T17:02:35.772Z,81.33
2018-11-03T17:05:04.869Z,81.30
2018-11-03T17:07:33.764Z,81.04
2018-11-03T17:10:02.648Z,80.42
2018-11-03T17:12:31.594Z,80.90
2018-11-03T17:15:00.515Z,81.19
2018-11-03T17:17:29.389Z,81.50
2018-11-03T17:19:58.305Z,82.13
2018-11-03T17:22:30.398Z,80.96
2018-11-03T17:24:59.562Z,81.20
2018-11-03T17:27:28.460Z,80.94
2018-11-03T17:29:57.337Z,80.68
2018-11-03T17:32:26.264Z,81.09
2018-11-03T17:34:55.116Z,81.12
2018-11-03T17:37:24.046Z,82.01
2018-11-03T17:39:52.997Z,82.05
2018-11-03T17:42:21.973Z,80.74
2018-11-03T17:44:50.845Z,81.07
2018-11-03T17:47:19.776Z,81.16
2018-11-03T17:49:48.703Z,80.26
2018-11-03T17:52:17.784Z,80.96
2018-11-03T17:54:46.699Z,82.30
2018-11-03T17:57:15.631Z,80.96
2018-11-03T17:59:44.512Z,81.08
2018-11-03T18:02:13.401Z,81.08
2018-11-03T18:04:42.326Z,81.44
2018-11-03T18:07:11.166Z,81.28
2018-11-03T18:09:40.080Z,81.50
2018-11-03T18:12:09.020Z,81.31
2018-11-03T18:14:37.902Z,80.59
2018-11-03T18:17:06.854Z,80.44
2018-11-03T18:19:35.802Z,81.41
2018-11-03T18:22:04.671Z,80.26
2018-11-03T18:24:33.665Z,81.05
2018-11-03T18:27:02.582Z,81.02
2018-11-03T18:29:31.505Z,81.50
2018-11-03T18:32:00.376Z,82.08
2018-11-03T18:34:29.298Z,81.17
2018-11-03T18:36:58.171Z,81.12
2018-11-03T18:39:27.165Z,81.07
2018-11-03T18:41:56.051Z,80.83
2018-11-03T18:44:24.921Z,80.95
2018-11-03T18:46:53.856Z,81.69
2018-11-03T18:49:22.743Z,81.30
2018-11-03T18:51:51.613Z,80.50
2018-11-03T18:54:20.520Z,81.03
2018-11-03T18:56:49.384Z,81.07
2018-11-03T18:59:18.300Z,81.47
2018-11-03T19:01:47.189Z,81.35
2018-11-03T19:04:16.088Z,80.74
2018-11-03T19:06:44.999Z,81.12
2018-11-03T19:09:13.953Z,81.40
2018-11-03T19:11:42.777Z,81.27
2018-11-03T19:14:11.681Z,80.64
2018-11-03T19:16:40.687Z,82.28
2018-11-03T19:19:09.903Z,82.66
2018-11-03T19:21:39.122Z,82.10
2018-11-03T19:24:08.391Z,80.83
2018-11-03T19:26:37.610Z,81.09
2018-11-03T19:29:06.794Z,80.91
2018-11-03T19:31:35.988Z,81.00
2018-11-03T19:34:05.224Z,81.12
2018-11-03T19:36:35.601Z,81.20
2018-11-03T19:39:06.370Z,82.10
2018-11-03T19:41:35.631Z,81.33
2018-11-03T19:44:05.090Z,81.01
2018-11-03T19:46:34.290Z,80.70
2018-11-03T19:49:03.548Z,80.81
2018-11-03T19:51:32.771Z,81.56
2018-11-03T19:54:02.005Z,81.01
2018-11-03T19:56:31.964Z,80.58
2018-11-03T19:59:00.918Z,82.05
2018-11-03T20:01:30.117Z,81.16
2018-11-03T20:03:59.018Z,80.61
2018-11-03T20:06:27.960Z,80.60
2018-11-03T20:08:56.856Z,80.90
2018-11-03T20:11:25.755Z,81.08
2018-11-03T20:13:54.753Z,80.65
2018-11-03T20:16:23.613Z,81.24
2018-11-03T20:18:52.514Z,81.77
2018-11-03T20:21:21.452Z,83.19
2018-11-03T20:23:50.336Z,82.20
2018-11-03T20:26:19.412Z,81.26
2018-11-03T20:28:48.171Z,80.85
2018-11-03T20:31:17.126Z,80.59
2018-11-03T20:33:46.064Z,81.47
2018-11-03T20:36:15.016Z,81.25
2018-11-03T20:38:43.934Z,80.67
2018-11-03T20:41:12.852Z,81.44
2018-11-03T20:43:42.265Z,80.22
2018-11-03T20:46:11.238Z,81.40
2018-11-03T20:48:40.165Z,81.43
2018-11-03T20:51:10.682Z,80.52
2018-11-03T20:53:40.141Z,80.24
2018-11-03T20:56:09.343Z,80.75
2018-11-03T20:58:38.283Z,81.28
2018-11-03T21:01:07.185Z,80.81
2018-11-03T21:03:36.087Z,80.92
2018-11-03T21:06:05.191Z,80.20
2018-11-03T21:08:34.073Z,80.75
2018-11-03T21:11:03.011Z,81.96
2018-11-03T21:13:31.925Z,80.95
2018-11-03T21:16:00.866Z,82.01
2018-11-03T21:18:30.534Z,80.50
2018-11-03T21:21:01.508Z,80.63
2018-11-03T21:23:31.440Z,81.11
2018-11-03T21:26:00.684Z,81.00
2018-11-03T21:28:30.115Z,81.21
2018-11-03T21:30:59.101Z,80.61
2018-11-03T21:33:27.962Z,81.60
2018-11-03T21:35:56.889Z,80.75
2018-11-03T21:38:25.801Z,80.57
2018-11-03T21:40:54.745Z,80.89
2018-11-03T21:43:23.679Z,80.66
2018-11-03T21:45:52.600Z,80.66
2018-11-03T21:48:21.481Z,81.17
2018-11-03T21:50:50.431Z,81.83
2018-11-03T21:53:19.342Z,81.09
2018-11-03T21:55:48.327Z,81.07
2018-11-03T21:58:17.178Z,81.71
2018-11-03T22:00:46.093Z,82.37
2018-11-03T22:03:14.985Z,81.84
2018-11-03T22:05:43.886Z,81.60
2018-11-03T22:08:14.045Z,81.16
2018-11-03T22:10:44.964Z,82.74
2018-11-03T22:13:13.823Z,83.05
2018-11-03T22:15:52.544Z,83.49
2018-11-03T22:18:26.683Z,81.96
2018-11-03T22:24:06.756Z,84.29
2018-11-03T22:26:37.538Z,82.58
2018-11-03T22:29:07.615Z,82.91
2018-11-03T22:31:36.506Z,82.99
2018-11-03T22:34:05.945Z,82.37
2018-11-03T22:36:34.836Z,82.08
2018-11-03T22:39:04.083Z,82.19
2018-11-03T22:41:32.981Z,82.24
2018-11-03T22:44:01.977Z,82.13
2018-11-03T22:46:30.937Z,81.94
2018-11-03T22:49:00.405Z,82.06
2018-11-03T22:51:29.543Z,81.97
2018-11-03T22:53:58.337Z,82.08
2018-11-03T22:56:27.273Z,81.96
2018-11-03T22:58:56.320Z,82.54
2018-11-03T23:01:25.229Z,82.51
2018-11-03T23:03:54.103Z,83.07
2018-11-03T23:06:22.989Z,82.38
2018-11-03T23:08:51.886Z,82.83
2018-11-03T23:11:20.919Z,82.37
2018-11-03T23:13:49.874Z,82.12
2018-11-03T23:16:18.702Z,82.58
2018-11-03T23:18:47.582Z,82.90
2018-11-03T23:21:16.516Z,82.99
2018-11-03T23:23:48.402Z,82.96
2018-11-03T23:26:20.947Z,82.87
2018-11-03T23:28:54.167Z,83.16
2018-11-03T23:31:29.218Z,82.94
2018-11-03T23:34:06.981Z,83.46
2018-11-03T23:36:40.155Z,83.43
2018-11-03T23:39:11.009Z,83.98
2018-11-03T23:41:40.325Z,84.69
2018-11-03T23:44:09.490Z,83.70
2018-11-03T23:46:38.906Z,84.34
2018-11-03T23:49:07.843Z,84.39
2018-11-03T23:51:48.520Z,84.84
2018-11-03T23:54:17.432Z,84.63
2018-11-03T23:56:46.339Z,84.20
2018-11-03T23:59:15.249Z,85.35
